Time;durP1;ratioP1;P1;durP2;ratioP2;P2;SDS_P1;SDS_P2;PMS_P1;PMS_P2;Temp;Humidity;BMP_temperature;BMP_pressure;BME280_temperature;BME280_humidity;BME280_pressure;Samples;Min_cycle;Max_cycle;Signal;HPM_P1;HPM_P2
2022/06/17 00:02:13;;;;;;;1.90;1.80;;;;;;;21.09;48.88;99270.91;4997534;28;103057;-72
2022/06/17 00:04:43;;;;;;;2.00;1.80;;;;;;;21.11;48.83;99277.81;5019640;27;104349;-73
2022/06/17 00:07:15;;;;;;;2.30;2.10;;;;;;;21.05;48.70;99281.09;5005480;28;104116;-73
2022/06/17 00:09:43;;;;;;;1.90;1.80;;;;;;;20.98;49.30;99282.78;5017746;28;103206;-73
2022/06/17 00:12:14;;;;;;;3.30;2.20;;;;;;;20.66;49.49;99283.47;5000177;28;102979;-73
2022/06/17 00:17:28;;;;;;;1.70;1.40;;;;;;;20.74;49.58;99282.69;5006944;28;104565;-73
2022/06/17 00:19:57;;;;;;;2.13;1.63;;;;;;;20.71;49.89;99291.06;5017781;27;103347;-73
2022/06/17 00:22:25;;;;;;;1.70;1.40;;;;;;;20.65;49.80;99291.72;5009491;27;103716;-73
2022/06/17 00:24:54;;;;;;;1.42;1.33;;;;;;;20.79;49.69;99293.78;5010799;28;102796;-73
2022/06/17 00:27:22;;;;;;;1.50;1.40;;;;;;;20.83;49.54;99283.56;5007208;27;104400;-73
2022/06/17 00:29:50;;;;;;;1.60;1.50;;;;;;;20.83;49.70;99292.44;5014146;28;103196;-73
2022/06/17 00:32:18;;;;;;;1.40;1.30;;;;;;;20.85;49.01;99282.41;5003111;28;102999;-73
2022/06/17 00:34:46;;;;;;;2.55;2.05;;;;;;;20.61;49.85;99282.28;5008144;27;102775;-73
2022/06/17 00:37:15;;;;;;;2.75;2.10;;;;;;;20.43;50.35;99286.91;4998209;28;104171;-72
2022/06/17 00:39:43;;;;;;;2.00;1.85;;;;;;;20.39;50.54;99297.09;5031617;27;103334;-73
2022/06/17 00:42:14;;;;;;;1.70;1.60;;;;;;;20.43;50.88;99297.63;4997362;28;102667;-73
2022/06/17 00:44:52;;;;;;;2.40;1.75;;;;;;;20.41;50.58;99310.34;5001147;27;102934;-72
2022/06/17 00:47:27;;;;;;;2.00;1.75;;;;;;;20.30;50.96;99314.13;5015292;28;103838;-72
2022/06/17 00:50:00;;;;;;;2.00;1.75;;;;;;;20.28;51.40;99300.03;5020340;28;103185;-72
2022/06/17 00:52:39;;;;;;;1.77;1.63;;;;;;;20.26;51.44;99309.25;5003734;28;103123;-73
2022/06/17 00:55:26;;;;;;;2.70;2.00;;;;;;;20.09;51.84;99306.44;4999345;28;103299;-73
2022/06/17 00:57:55;;;;;;;2.47;2.22;;;;;;;19.80;52.98;99310.34;4997207;27;103891;-73
2022/06/17 01:00:25;;;;;;;2.28;1.92;;;;;;;19.60;53.39;99309.69;5005715;28;104182;-73
2022/06/17 01:02:58;;;;;;;1.95;1.75;;;;;;;19.69;52.93;99303.41;4997214;27;102685;-72
2022/06/17 01:05:32;;;;;;;1.80;1.70;;;;;;;19.79;53.00;99298.78;5012421;28;103674;-73
2022/06/17 01:08:05;;;;;;;2.10;1.90;;;;;;;19.80;53.06;99300.47;5017052;28;104430;-73
2022/06/17 01:10:32;;;;;;;3.00;2.20;;;;;;;19.60;53.54;99307.00;5002107;28;105101;-73
2022/06/17 01:13:04;;;;;;;2.22;2.03;;;;;;;19.27;54.56;99313.84;4998764;28;102900;-73
2022/06/17 01:15:38;;;;;;;2.10;1.90;;;;;;;19.13;54.79;99300.09;4993670;28;102881;-73
2022/06/17 01:18:07;;;;;;;2.77;2.20;;;;;;;19.31;54.53;99295.63;5000419;28;106344;-73
2022/06/17 01:20:38;;;;;;;1.98;1.77;;;;;;;19.36;54.71;99296.03;4996747;28;103356;-73
2022/06/17 01:23:11;;;;;;;1.90;1.70;;;;;;;19.51;53.97;99294.50;5000669;28;102689;-72
2022/06/17 01:25:42;;;;;;;2.25;1.40;;;;;;;19.59;53.75;99291.94;4997536;28;102817;-73
2022/06/17 01:28:14;;;;;;;2.42;1.73;;;;;;;19.43;54.18;99284.56;5014864;28;104227;-73
2022/06/17 01:30:45;;;;;;;2.47;2.00;;;;;;;19.42;54.19;99290.09;5005571;28;104174;-73
2022/06/17 01:33:19;;;;;;;2.75;2.10;;;;;;;19.08;55.35;99288.03;5011864;28;102684;-73
2022/06/17 01:35:52;;;;;;;2.27;2.00;;;;;;;18.76;56.32;99292.13;5002855;28;104153;-73
2022/06/17 01:38:22;;;;;;;2.60;2.00;;;;;;;18.95;55.86;99284.00;4999691;28;104335;-73
2022/06/17 01:40:51;;;;;;;1.90;1.75;;;;;;;19.08;55.54;99288.03;4998262;28;103250;-73
2022/06/17 01:43:22;;;;;;;1.80;1.70;;;;;;;19.04;55.84;99286.63;4983155;28;102998;-73
2022/06/17 01:45:57;;;;;;;2.10;1.88;;;;;;;19.06;55.80;99290.00;5004040;28;104117;-73
2022/06/17 01:48:33;;;;;;;2.47;2.10;;;;;;;19.08;55.65;99287.19;5004010;28;104135;-73
2022/06/17 01:51:04;;;;;;;1.83;1.73;;;;;;;19.06;55.69;99290.00;5014883;28;103229;-73
2022/06/17 01:53:39;;;;;;;2.00;1.80;;;;;;;19.05;55.76;99288.34;4998482;28;103066;-74
2022/06/17 01:56:10;;;;;;;3.33;2.50;;;;;;;18.69;57.11;99289.22;4994706;28;103869;-73
2022/06/17 01:58:43;;;;;;;2.40;2.20;;;;;;;18.82;56.37;99289.72;4999090;28;104184;-73
2022/06/17 02:01:12;;;;;;;2.57;2.20;;;;;;;18.52;57.19;99300.69;4996566;28;103327;-73
2022/06/17 02:03:43;;;;;;;2.10;1.88;;;;;;;18.57;57.19;99294.91;4994390;27;104143;-73
2022/06/17 02:06:19;;;;;;;3.25;2.13;;;;;;;18.58;56.81;99293.91;4993123;28;102814;-72
2022/06/17 02:08:48;;;;;;;2.00;1.83;;;;;;;18.61;56.95;99291.78;4995120;28;103250;-73
2022/06/17 02:11:17;;;;;;;2.40;2.20;;;;;;;18.57;56.85;99301.09;4988676;27;103259;-73
2022/06/17 02:13:53;;;;;;;1.87;1.60;;;;;;;18.73;56.90;99295.94;5001874;28;102884;-73
2022/06/17 02:16:29;;;;;;;1.47;1.37;;;;;;;18.81;56.14;99289.84;4996483;27;102728;-73
2022/06/17 02:19:23;;;;;;;1.55;1.45;;;;;;;18.88;55.57;99283.78;5009889;27;103009;-73
2022/06/17 02:21:54;;;;;;;2.40;2.00;;;;;;;18.90;55.73;99268.41;4997912;28;103303;-73
2022/06/17 02:24:25;;;;;;;1.88;1.60;;;;;;;18.92;55.25;99271.75;4989627;28;102798;-73
2022/06/17 02:26:54;;;;;;;2.17;1.80;;;;;;;19.03;54.80;99274.22;4998096;28;102715;-73
2022/06/17 02:29:24;;;;;;;2.70;1.95;;;;;;;18.98;55.71;99276.53;4999005;28;105453;-73
2022/06/17 02:31:53;;;;;;;2.00;1.80;;;;;;;18.97;56.14;99274.00;5013850;28;103313;-73
2022/06/17 02:34:22;;;;;;;1.63;1.50;;;;;;;18.98;55.56;99284.56;5019557;28;103002;-73
2022/06/17 02:36:55;;;;;;;1.90;1.70;;;;;;;19.00;55.59;99285.22;5019003;27;103163;-73
2022/06/17 02:39:26;;;;;;;2.83;2.30;;;;;;;18.14;58.34;99295.41;4993794;28;103555;-73
2022/06/17 02:41:54;;;;;;;2.13;1.92;;;;;;;18.32;58.14;99294.53;5023047;27;104438;-73
2022/06/17 02:44:26;;;;;;;1.65;1.27;;;;;;;18.61;57.22;99288.28;4993535;27;102749;-73
2022/06/17 02:46:57;;;;;;;1.67;1.58;;;;;;;18.71;56.67;99284.56;5004999;27;103633;-73
2022/06/17 02:49:27;;;;;;;2.28;1.88;;;;;;;18.78;56.43;99280.28;5001448;28;103811;-73
2022/06/17 02:51:56;;;;;;;2.10;1.90;;;;;;;18.71;56.72;99289.91;5002410;27;103234;-73
2022/06/17 02:54:32;;;;;;;1.98;1.80;;;;;;;18.70;56.49;99280.19;4984099;28;102748;-73
2022/06/17 02:57:02;;;;;;;1.98;1.85;;;;;;;18.63;57.03;99281.78;4998803;27;102648;-73
2022/06/17 02:59:35;;;;;;;3.03;2.13;;;;;;;18.60;57.51;99281.22;4998431;28;103374;-72
2022/06/17 03:02:10;;;;;;;2.88;2.28;;;;;;;18.18;58.79;99280.78;5010162;28;102893;-73
2022/06/17 03:04:44;;;;;;;3.80;2.33;;;;;;;17.89;59.35;99289.69;4993504;28;102840;-72
2022/06/17 03:07:15;;;;;;;3.10;2.60;;;;;;;17.27;61.79;99290.09;4992838;28;104276;-72
2022/06/17 03:09:46;;;;;;;3.65;2.47;;;;;;;17.26;62.03;99288.38;5000776;28;104603;-76
2022/06/17 03:12:17;;;;;;;2.30;2.10;;;;;;;17.63;61.01;99295.75;5000398;28;103233;-79
2022/06/17 03:14:52;;;;;;;2.35;2.10;;;;;;;17.68;60.87;99298.88;5004423;28;102711;-78
2022/06/17 03:17:28;;;;;;;2.33;2.00;;;;;;;17.92;59.95;99307.28;5018775;28;103908;-78
2022/06/17 03:19:59;;;;;;;2.28;2.00;;;;;;;17.94;59.43;99306.16;5000959;27;105900;-78
2022/06/17 03:22:29;;;;;;;2.38;2.10;;;;;;;18.00;59.45;99311.91;4999712;28;103238;-78
2022/06/17 03:25:06;;;;;;;2.20;2.00;;;;;;;17.93;60.22;99311.66;5021455;27;102673;-78
2022/06/17 03:27:39;;;;;;;1.88;1.70;;;;;;;18.03;59.76;99315.13;4998905;28;103180;-78
2022/06/17 03:30:10;;;;;;;2.30;1.95;;;;;;;18.01;60.51;99311.78;5015021;28;103315;-78
2022/06/17 03:32:42;;;;;;;2.53;2.33;;;;;;;17.92;61.35;99310.81;4999218;28;104642;-79
2022/06/17 03:35:16;;;;;;;3.13;2.50;;;;;;;17.84;61.35;99316.00;5012318;28;102729;-79
2022/06/17 03:37:53;;;;;;;2.15;2.00;;;;;;;17.88;61.50;99328.09;4993187;28;104031;-78
2022/06/17 03:40:28;;;;;;;2.40;2.00;;;;;;;18.00;60.56;99325.28;4999716;28;103267;-80
2022/06/17 03:43:03;;;;;;;3.17;2.35;;;;;;;18.05;60.33;99317.69;4999882;27;102630;-78
2022/06/17 03:45:43;;;;;;;2.30;2.10;;;;;;;18.02;60.43;99317.97;5012102;28;103442;-79
2022/06/17 03:48:19;;;;;;;2.30;1.92;;;;;;;18.07;59.90;99326.41;4998697;27;103958;-81
2022/06/17 03:50:50;;;;;;;3.63;2.47;;;;;;;17.90;60.70;99336.84;5003131;28;104190;-80
2022/06/17 03:53:25;;;;;;;3.20;2.60;;;;;;;17.60;61.73;99336.13;4990122;28;105536;-78
2022/06/17 03:55:57;;;;;;;2.38;2.17;;;;;;;17.84;61.50;99332.06;5005138;27;102622;-78
2022/06/17 03:58:26;;;;;;;3.10;2.42;;;;;;;17.83;61.71;99341.03;4995149;28;102890;-78
2022/06/17 04:01:01;;;;;;;2.33;1.92;;;;;;;17.89;61.67;99344.97;4991211;28;105078;-79
2022/06/17 04:03:35;;;;;;;2.72;1.98;;;;;;;18.03;61.52;99346.38;4992319;28;104564;-79
2022/06/17 04:06:09;;;;;;;4.97;2.40;;;;;;;18.03;61.26;99349.91;5016873;28;103013;-80
2022/06/17 04:08:51;;;;;;;2.53;2.10;;;;;;;17.99;61.64;99348.50;4985383;28;104271;-80
2022/06/17 04:11:23;;;;;;;2.30;2.00;;;;;;;18.04;61.32;99353.41;4976517;28;104296;-78
2022/06/17 04:13:56;;;;;;;2.03;1.80;;;;;;;18.18;61.17;99356.50;5001606;28;105119;-72
2022/06/17 04:16:33;;;;;;;3.50;2.53;;;;;;;18.01;60.95;99356.38;4994927;28;102864;-74
2022/06/17 04:19:14;;;;;;;1.73;1.60;;;;;;;18.30;59.92;99355.34;4999853;28;104559;-70
2022/06/17 04:21:46;;;;;;;2.03;1.80;;;;;;;18.48;59.31;99366.19;4993426;28;104298;-70
2022/06/17 04:24:18;;;;;;;2.20;2.00;;;;;;;18.54;59.37;99368.28;5002661;28;105361;-72
2022/06/17 04:27:01;;;;;;;2.67;2.10;;;;;;;18.56;60.14;99374.31;4999140;28;102858;-70
2022/06/17 04:29:35;;;;;;;2.23;1.97;;;;;;;18.58;60.29;99374.19;5002141;28;104298;-71
2022/06/17 04:32:18;;;;;;;1.52;1.42;;;;;;;18.64;59.66;99374.44;5002030;28;104213;-73
2022/06/17 04:34:48;;;;;;;1.70;1.60;;;;;;;18.68;60.05;99378.53;5000993;28;105411;-71
2022/06/17 04:37:22;;;;;;;2.75;2.38;;;;;;;18.68;60.68;99378.53;5002481;28;103044;-71
2022/06/17 04:40:20;;;;;;;2.28;2.08;;;;;;;18.70;60.87;99389.06;4985627;28;103006;-70
2022/06/17 04:43:21;;;;;;;1.83;1.73;;;;;;;18.74;60.94;99379.78;4999221;27;105520;-70
2022/06/17 04:45:55;;;;;;;2.20;1.95;;;;;;;18.78;60.87;99387.34;5000604;28;104169;-70
2022/06/17 04:48:24;;;;;;;2.65;2.30;;;;;;;18.83;61.00;99376.22;4994737;28;103304;-70
2022/06/17 04:50:52;;;;;;;4.05;2.80;;;;;;;18.50;62.98;99378.41;4995865;28;103998;-70
2022/06/17 04:53:22;;;;;;;2.10;1.90;;;;;;;18.73;61.03;99381.59;4991324;28;104509;-71
2022/06/17 04:56:18;;;;;;;2.17;1.98;;;;;;;18.94;60.64;99386.75;4980612;28;103255;-70
2022/06/17 04:59:29;;;;;;;2.15;1.98;;;;;;;19.03;59.80;99392.06;4996662;28;102709;-70
2022/06/17 05:02:01;;;;;;;3.03;2.00;;;;;;;19.08;59.35;99387.13;4984294;28;104668;-69
2022/06/17 05:04:40;;;;;;;2.60;2.40;;;;;;;18.96;60.66;99396.31;4998846;28;106374;-73
2022/06/17 05:07:08;;;;;;;2.50;2.30;;;;;;;19.14;60.19;99398.22;5006794;28;106033;-73
2022/06/17 05:09:42;;;;;;;2.90;2.30;;;;;;;19.30;58.73;99401.09;5006803;28;103041;-73
2022/06/17 05:12:24;;;;;;;4.05;2.60;;;;;;;19.13;59.61;99394.69;5006619;28;103704;-72
2022/06/17 05:14:58;;;;;;;3.25;2.38;;;;;;;19.13;58.61;99401.88;5025271;28;103267;-72
2022/06/17 05:17:26;;;;;;;1.90;1.80;;;;;;;19.34;57.99;99405.19;5000718;28;105066;-72
2022/06/17 05:19:55;;;;;;;2.70;1.60;;;;;;;19.53;57.42;99402.41;5001099;28;102729;-72
2022/06/17 05:22:30;;;;;;;1.92;1.65;;;;;;;19.68;57.53;99398.19;5013944;27;104410;-70
2022/06/17 05:25:00;;;;;;;3.47;2.15;;;;;;;19.75;56.92;99399.31;4996258;28;103305;-70
2022/06/17 05:27:29;;;;;;;3.15;2.35;;;;;;;19.61;57.33;99405.19;4996227;28;104828;-72
2022/06/17 05:29:58;;;;;;;3.53;2.20;;;;;;;19.39;56.19;99402.91;5007952;27;102735;-71
2022/06/17 05:32:32;;;;;;;3.60;2.50;;;;;;;19.00;57.58;99411.09;4997821;28;104403;-71
2022/06/17 05:35:00;;;;;;;2.80;2.30;;;;;;;19.28;56.58;99409.28;5010180;28;104087;-72
2022/06/17 05:37:28;;;;;;;2.45;1.90;;;;;;;19.66;56.26;99408.25;4992515;28;104118;-71
2022/06/17 05:40:00;;;;;;;2.33;1.85;;;;;;;20.04;55.42;99404.44;5005754;28;102722;-71
2022/06/17 05:42:31;;;;;;;2.10;1.60;;;;;;;20.29;55.18;99408.22;5009558;28;102929;-71
2022/06/17 05:45:00;;;;;;;2.50;2.10;;;;;;;20.40;54.55;99406.13;5009846;28;105432;-73
2022/06/17 05:47:52;;;;;;;2.53;1.93;;;;;;;20.47;54.72;99422.44;4982577;28;103315;-75
2022/06/17 05:50:26;;;;;;;3.00;2.35;;;;;;;20.39;55.83;99422.38;5006845;28;103000;-77
2022/06/17 05:53:15;;;;;;;2.67;2.45;;;;;;;20.50;54.73;99427.50;5020979;28;102785;-76
2022/06/17 05:55:54;;;;;;;3.10;2.40;;;;;;;19.67;55.76;99434.06;5004791;28;103298;-79
2022/06/17 05:58:22;;;;;;;1.70;1.60;;;;;;;20.36;54.77;99433.41;5002897;28;103272;-81
2022/06/17 06:00:54;;;;;;;5.03;2.30;;;;;;;19.88;56.22;99442.66;5006821;28;102826;-79
2022/06/17 06:03:26;;;;;;;2.03;1.80;;;;;;;20.27;55.73;99434.38;5008554;28;102825;-76
2022/06/17 06:05:57;;;;;;;2.17;1.70;;;;;;;20.77;55.88;99432.75;5031635;27;103363;-83
2022/06/17 06:08:25;;;;;;;2.05;1.85;;;;;;;21.06;54.91;99441.28;5013489;27;103286;-80
2022/06/17 06:10:54;;;;;;;4.97;2.77;;;;;;;19.49;57.51;99442.06;5016368;27;102749;-77
2022/06/17 06:13:26;;;;;;;1.80;1.70;;;;;;;20.38;56.32;99440.31;5011313;28;104041;-78
2022/06/17 06:15:59;;;;;;;2.73;2.00;;;;;;;20.94;54.99;99436.38;5009733;27;104024;-72
2022/06/17 06:18:33;;;;;;;1.98;1.77;;;;;;;20.79;55.87;99431.59;5006058;28;104451;-74
2022/06/17 06:21:05;;;;;;;2.70;1.95;;;;;;;21.14;55.13;99425.25;5000907;28;102703;-73
2022/06/17 06:23:36;;;;;;;3.77;2.30;;;;;;;21.53;54.71;99424.75;5003849;28;104504;-74
2022/06/17 06:26:07;;;;;;;4.23;2.40;;;;;;;21.13;53.99;99418.22;5012452;28;103307;-73
2022/06/17 06:28:37;;;;;;;3.92;2.40;;;;;;;21.42;54.40;99414.31;5011749;27;103256;-74
2022/06/17 06:31:25;;;;;;;3.00;2.08;;;;;;;21.57;54.87;99418.03;5009088;27;102733;-74
2022/06/17 06:33:54;;;;;;;3.70;2.35;;;;;;;21.62;54.45;99418.38;4993320;28;103755;-74
2022/06/17 06:36:24;;;;;;;2.97;2.30;;;;;;;21.64;54.88;99411.03;5015583;28;105078;-73
2022/06/17 06:38:55;;;;;;;3.00;2.40;;;;;;;21.15;55.17;99426.09;5001391;27;102842;-73
2022/06/17 06:41:23;;;;;;;3.80;2.58;;;;;;;20.41;55.63;99417.69;4993284;28;103713;-75
2022/06/17 06:43:52;;;;;;;2.45;2.10;;;;;;;20.42;54.79;99414.84;4994047;28;102818;-74
2022/06/17 06:46:41;;;;;;;3.67;1.90;;;;;;;21.38;52.50;99421.84;5020401;28;103225;-73
2022/06/17 06:49:22;;;;;;;3.15;2.20;;;;;;;21.67;52.60;99413.38;5002176;27;103927;-77
2022/06/17 06:51:50;;;;;;;3.70;2.00;;;;;;;21.81;51.55;99428.88;4996308;28;102733;-81
2022/06/17 06:54:18;;;;;;;2.25;2.00;;;;;;;21.77;52.65;99422.13;5012480;28;104532;-76
2022/06/17 06:56:46;;;;;;;4.28;2.03;;;;;;;20.94;52.73;99429.13;5011730;27;103339;-75
2022/06/17 06:59:14;;;;;;;2.35;1.90;;;;;;;21.25;53.04;99433.03;5029393;27;103671;-78
2022/06/17 07:01:45;;;;;;;3.72;2.30;;;;;;;21.00;53.08;99439.25;4999147;28;102660;-75
2022/06/17 07:04:15;;;;;;;2.97;1.90;;;;;;;21.86;52.33;99430.06;5016964;27;104330;-76
2022/06/17 07:06:43;;;;;;;2.60;2.20;;;;;;;22.16;52.57;99439.38;5004723;28;103963;-76
2022/06/17 07:09:12;;;;;;;2.85;1.80;;;;;;;22.66;51.48;99439.25;5026179;28;103229;-77
2022/06/17 07:11:40;;;;;;;4.40;2.67;;;;;;;21.38;52.76;99446.88;5023174;28;102926;-75
2022/06/17 07:14:08;;;;;;;3.35;2.47;;;;;;;21.54;51.87;99446.09;5016702;28;102731;-73
2022/06/17 07:16:36;;;;;;;2.80;1.90;;;;;;;22.39;50.96;99442.28;5022036;28;104705;-74
2022/06/17 07:19:07;;;;;;;2.92;1.95;;;;;;;22.76;49.25;99445.31;5009981;27;103458;-76
2022/06/17 07:21:35;;;;;;;3.13;2.13;;;;;;;22.45;49.29;99446.97;5022328;28;102732;-76
2022/06/17 07:24:07;;;;;;;3.17;2.43;;;;;;;22.18;49.79;99453.50;5020219;28;103082;-73
2022/06/17 07:26:35;;;;;;;2.88;2.25;;;;;;;22.12;49.05;99445.28;5017783;28;103301;-74
2022/06/17 07:29:03;;;;;;;2.80;2.20;;;;;;;22.58;48.78;99446.47;5001489;28;103403;-73
2022/06/17 07:31:31;;;;;;;3.92;2.40;;;;;;;22.67;48.73;99440.09;5007751;27;102652;-74
2022/06/17 07:33:59;;;;;;;3.00;2.13;;;;;;;22.79;48.15;99436.06;4999576;28;102908;-73
2022/06/17 07:42:01;;;;;;;3.17;2.10;;;;;;;24.26;46.93;99435.25;5007638;27;102873;-73
2022/06/17 07:44:29;;;;;;;4.43;2.20;;;;;;;24.31;46.77;99433.69;5011866;27;103854;-73
2022/06/17 07:46:57;;;;;;;3.03;1.97;;;;;;;24.75;45.33;99436.56;5024365;28;103973;-74
2022/06/17 07:49:25;;;;;;;2.67;1.80;;;;;;;24.92;44.46;99437.25;5028847;27;103484;-74
2022/06/17 07:51:54;;;;;;;2.40;1.95;;;;;;;25.27;44.86;99437.38;5028967;27;102905;-73
2022/06/17 07:54:22;;;;;;;2.60;2.20;;;;;;;25.39;44.60;99443.16;5034475;27;103648;-75
2022/06/17 07:56:54;;;;;;;2.38;1.80;;;;;;;25.85;43.40;99436.47;5022811;27;103985;-74
2022/06/17 07:59:24;;;;;;;2.50;2.20;;;;;;;26.12;42.58;99432.19;5037152;27;103200;-74
2022/06/17 08:01:52;;;;;;;4.17;2.40;;;;;;;25.85;42.93;99430.25;5025195;27;102868;-73
2022/06/17 08:04:20;;;;;;;3.17;1.90;;;;;;;26.09;43.20;99434.44;5018452;28;103956;-77
2022/06/17 08:06:50;;;;;;;4.75;1.80;;;;;;;26.52;41.27;99430.75;5019089;28;104041;-76
2022/06/17 08:09:20;;;;;;;2.92;2.28;;;;;;;26.61;41.63;99432.25;5022005;28;103496;-76
2022/06/17 08:11:49;;;;;;;3.38;2.00;;;;;;;27.06;41.06;99428.25;5019061;28;102738;-75
2022/06/17 08:14:17;;;;;;;3.03;2.13;;;;;;;27.18;41.39;99431.25;5004843;28;104174;-77
2022/06/17 08:16:46;;;;;;;3.35;2.45;;;;;;;27.18;41.69;99428.53;5018229;28;103260;-78
2022/06/17 08:19:13;;;;;;;4.20;2.40;;;;;;;27.40;40.86;99443.69;5009977;27;103201;-77
2022/06/17 08:21:41;;;;;;;5.70;2.67;;;;;;;27.36;40.94;99434.28;5015188;28;102839;-77
2022/06/17 08:24:27;;;;;;;3.00;2.13;;;;;;;28.27;40.17;99436.56;5003078;28;103037;-77
2022/06/17 08:26:55;;;;;;;3.50;2.40;;;;;;;28.35;38.36;99425.47;5012413;27;103747;-76
2022/06/17 08:29:26;;;;;;;2.28;2.00;;;;;;;28.97;39.36;99440.59;5035324;27;103179;-77
2022/06/17 08:35:02;;;;;;;3.75;2.30;;;;;;;28.75;37.54;99431.81;5001732;28;103133;-77
2022/06/17 08:37:32;;;;;;;3.90;2.38;;;;;;;29.25;36.73;99431.16;5022065;28;103947;-77
2022/06/17 08:40:01;;;;;;;4.03;2.70;;;;;;;28.39;38.44;99428.63;5023126;28;103337;-75
2022/06/17 08:42:43;;;;;;;3.20;2.43;;;;;;;28.06;38.33;99424.00;5007229;27;102873;-76
2022/06/17 08:45:21;;;;;;;3.22;2.40;;;;;;;28.24;38.14;99425.28;5029994;27;102801;-76
2022/06/17 08:48:03;;;;;;;3.97;2.70;;;;;;;28.93;38.53;99434.75;5023172;27;103300;-76
2022/06/17 08:50:40;;;;;;;3.45;2.40;;;;;;;27.47;39.28;99426.47;5018272;28;103227;-77
2022/06/17 08:53:41;;;;;;;3.25;2.20;;;;;;;28.86;37.72;99425.75;5006138;28;102887;-76
2022/06/17 08:56:22;;;;;;;2.92;2.10;;;;;;;29.17;35.68;99417.75;5003697;28;103846;-75
2022/06/17 08:59:04;;;;;;;4.37;2.30;;;;;;;28.70;35.79;99423.44;5022158;27;103311;-76
2022/06/17 09:01:42;;;;;;;2.58;2.03;;;;;;;30.13;36.77;99421.38;5033777;27;103260;-76
2022/06/17 09:04:32;;;;;;;3.63;2.08;;;;;;;30.66;34.02;99410.09;5033276;27;102785;-76
2022/06/17 09:07:17;;;;;;;2.00;1.80;;;;;;;31.39;35.65;99425.56;5031229;27;102822;-76
2022/06/17 09:10:08;;;;;;;2.97;2.58;;;;;;;28.83;36.68;99431.59;5021698;27;103328;-76
2022/06/17 09:12:53;;;;;;;2.90;1.90;;;;;;;27.97;36.42;99427.91;5030784;27;103216;-77
2022/06/17 09:15:31;;;;;;;2.72;1.90;;;;;;;29.91;35.07;99422.78;5012146;27;103176;-76
2022/06/17 09:18:09;;;;;;;2.50;1.58;;;;;;;28.69;36.05;99419.06;5008640;27;102756;-76
2022/06/17 09:20:39;;;;;;;2.33;1.60;;;;;;;28.03;35.75;99418.97;5035133;27;103227;-76
2022/06/17 09:23:16;;;;;;;2.40;1.67;;;;;;;26.89;36.95;99418.78;5018408;28;103217;-76
2022/06/17 09:25:46;;;;;;;1.42;1.30;;;;;;;28.64;35.34;99422.41;5015807;28;102690;-76
2022/06/17 09:28:20;;;;;;;2.80;1.85;;;;;;;28.19;33.45;99418.56;5010846;28;103166;-77
2022/06/17 09:30:52;;;;;;;2.03;1.67;;;;;;;27.42;36.50;99425.41;5018661;28;104030;-76
2022/06/17 09:33:26;;;;;;;3.47;1.90;;;;;;;28.99;34.82;99417.59;5027862;27;103271;-75
2022/06/17 09:36:00;;;;;;;2.28;1.73;;;;;;;29.96;36.17;99417.50;5000921;27;103517;-76
2022/06/17 09:38:34;;;;;;;2.80;1.80;;;;;;;31.29;34.24;99422.56;5010810;27;104192;-76
2022/06/17 09:41:07;;;;;;;2.22;1.70;;;;;;;30.97;32.73;99418.25;5026892;27;104035;-76
2022/06/17 09:43:44;;;;;;;3.63;2.00;;;;;;;28.21;35.42;99433.84;5019470;28;102823;-76
2022/06/17 09:46:20;;;;;;;3.00;2.00;;;;;;;27.80;37.23;99434.72;5004835;27;102698;-78
2022/06/17 09:48:54;;;;;;;2.43;1.90;;;;;;;28.51;35.20;99427.81;5031522;27;102680;-78
2022/06/17 09:51:28;;;;;;;2.50;1.67;;;;;;;29.02;34.27;99429.91;5024101;27;103783;-77
2022/06/17 09:54:03;;;;;;;3.27;1.70;;;;;;;29.98;32.69;99425.47;5026406;27;103268;-79
2022/06/17 09:56:38;;;;;;;2.27;1.80;;;;;;;30.39;32.99;99423.97;5021074;27;102588;-74
2022/06/17 09:59:15;;;;;;;3.10;1.63;;;;;;;31.26;33.41;99420.28;5004863;27;104748;-77
2022/06/17 10:01:44;;;;;;;3.67;1.75;;;;;;;30.72;32.43;99418.25;5024140;27;103579;-78
2022/06/17 10:04:14;;;;;;;2.97;1.83;;;;;;;29.61;34.43;99408.03;5005692;28;103322;-77
2022/06/17 10:06:54;;;;;;;2.90;1.70;;;;;;;30.86;36.04;99402.59;5000503;27;103072;-77
2022/06/17 10:09:37;;;;;;;2.63;1.43;;;;;;;30.37;35.74;99398.81;5024366;27;102802;-74
2022/06/17 10:12:12;;;;;;;2.75;1.50;;;;;;;31.71;33.35;99390.78;4999013;27;104708;-73
2022/06/17 10:14:58;;;;;;;2.55;1.70;;;;;;;29.57;32.90;99401.31;5028149;27;103255;-72
2022/06/17 10:20:35;;;;;;;2.47;1.60;;;;;;;29.40;32.28;99400.13;5027911;27;102981;-72
2022/06/17 10:23:15;;;;;;;1.90;1.70;;;;;;;28.23;34.09;99397.28;5019656;27;103231;-72
2022/06/17 10:25:55;;;;;;;3.65;1.67;;;;;;;28.58;33.40;99396.03;5023653;27;103333;-72
2022/06/17 10:28:52;;;;;;;1.77;1.40;;;;;;;28.15;34.01;99390.13;5003160;28;102850;-73
2022/06/17 10:31:32;;;;;;;3.75;1.50;;;;;;;28.40;33.77;99389.56;5019933;27;102709;-71
2022/06/17 10:34:04;;;;;;;1.67;1.35;;;;;;;29.49;31.65;99390.69;4996240;27;103434;-71
2022/06/17 10:36:40;;;;;;;1.98;1.48;;;;;;;31.13;32.34;99382.19;5025763;27;103425;-72
2022/06/17 10:39:11;;;;;;;1.92;1.48;;;;;;;31.00;30.39;99387.78;5012649;28;103182;-72
2022/06/17 10:41:39;;;;;;;2.53;1.50;;;;;;;31.01;28.63;99389.47;5006075;28;103676;-73
2022/06/17 10:44:11;;;;;;;2.75;1.50;;;;;;;30.01;29.18;99384.97;5022961;27;104263;-73
2022/06/17 10:46:46;;;;;;;1.87;1.20;;;;;;;30.32;29.72;99384.97;5031283;27;103404;-72
2022/06/17 10:49:21;;;;;;;2.33;1.30;;;;;;;29.64;30.71;99396.69;5028255;27;102885;-73
2022/06/17 10:51:53;;;;;;;1.30;1.20;;;;;;;31.08;30.28;99378.47;5023897;27;104294;-72
2022/06/17 10:54:26;;;;;;;2.63;1.52;;;;;;;30.91;31.65;99378.19;4997964;28;104123;-73
2022/06/17 10:57:01;;;;;;;1.88;1.27;;;;;;;31.69;30.50;99378.41;5014421;28;103206;-74
2022/06/17 10:59:34;;;;;;;2.63;1.48;;;;;;;28.58;32.04;99389.75;5022233;28;102780;-72
2022/06/17 11:02:25;;;;;;;1.40;1.27;;;;;;;30.16;32.27;99384.69;5019134;28;104016;-74
2022/06/17 11:04:55;;;;;;;2.72;1.60;;;;;;;30.61;31.84;99386.25;5016348;28;104501;-70
2022/06/17 11:07:28;;;;;;;1.70;1.60;;;;;;;31.27;30.56;99382.91;5002772;28;102989;-70
2022/06/17 11:09:58;;;;;;;2.00;1.40;;;;;;;31.60;31.12;99387.97;5001986;27;102714;-70
2022/06/17 11:12:33;;;;;;;2.50;1.42;;;;;;;30.67;30.20;99384.53;5018914;28;102641;-69
2022/06/17 11:15:05;;;;;;;1.67;1.30;;;;;;;30.49;32.11;99379.00;5019204;28;104165;-70
2022/06/17 11:17:41;;;;;;;4.20;1.63;;;;;;;30.69;30.43;99379.66;5032558;27;103239;-68
2022/06/17 11:20:23;;;;;;;2.27;1.63;;;;;;;30.97;32.27;99378.16;5020505;27;102775;-70
2022/06/17 11:23:19;;;;;;;2.15;1.40;;;;;;;31.18;30.55;99382.38;5005394;27;102900;-69
2022/06/17 11:25:48;;;;;;;2.03;1.60;;;;;;;30.29;32.19;99374.53;4993570;28;103795;-69
2022/06/17 11:28:24;;;;;;;2.72;1.40;;;;;;;31.00;29.70;99379.63;5011192;27;103225;-68
2022/06/17 11:30:54;;;;;;;1.80;1.58;;;;;;;30.80;30.61;99365.31;5022616;28;102946;-68
2022/06/17 11:33:28;;;;;;;2.83;1.40;;;;;;;30.56;30.44;99374.34;5037672;27;103980;-68
2022/06/17 11:36:02;;;;;;;3.27;1.50;;;;;;;30.86;28.95;99369.84;5027731;27;103632;-67
2022/06/17 11:38:33;;;;;;;1.33;1.23;;;;;;;31.36;29.40;99360.50;5009740;28;103197;-68
2022/06/17 11:41:26;;;;;;;2.60;1.20;;;;;;;31.14;28.35;99353.84;5019419;28;102612;-67
2022/06/17 11:43:55;;;;;;;1.40;1.30;;;;;;;31.96;27.85;99349.66;5023732;28;102785;-67
2022/06/17 11:46:25;;;;;;;1.42;0.90;;;;;;;32.24;26.84;99355.34;5021403;28;103211;-67
2022/06/17 11:48:57;;;;;;;4.72;1.17;;;;;;;30.21;28.83;99349.44;5017725;28;103161;-68
2022/06/17 11:51:29;;;;;;;2.90;1.20;;;;;;;30.59;28.76;99352.09;5022812;27;102968;-67
2022/06/17 11:54:00;;;;;;;1.27;1.17;;;;;;;32.30;27.43;99340.75;5019656;28;103922;-67
2022/06/17 11:56:35;;;;;;;2.55;1.10;;;;;;;30.06;27.64;99347.03;5022444;28;103840;-68
2022/06/17 11:59:13;;;;;;;2.13;1.20;;;;;;;31.01;27.33;99351.28;5023928;28;103264;-67
2022/06/17 12:01:43;;;;;;;1.38;1.23;;;;;;;30.75;27.94;99348.78;4999272;28;102792;-69
2022/06/17 12:04:32;;;;;;;3.08;1.25;;;;;;;30.37;29.10;99349.75;5022145;27;104283;-67
2022/06/17 12:07:00;;;;;;;1.98;1.30;;;;;;;29.94;29.41;99348.78;4996463;28;104499;-68
2022/06/17 12:09:33;;;;;;;1.30;1.20;;;;;;;29.74;29.82;99342.59;5001205;27;104155;-67